sensor_id;sensor_type;location;lat;lon;timestamp;P1;durP1;ratioP1;P2;durP2;ratioP2
61907;SDS011;47864;52.526;19.672;2023-03-19T00:01:39;67.72;;;33.22;;
61907;SDS011;47864;52.526;19.672;2023-03-19T00:03:40;66.97;;;32.58;;
61907;SDS011;47864;52.526;19.672;2023-03-19T00:05:48;69.30;;;31.33;;
61907;SDS011;47864;52.526;19.672;2023-03-19T00:07:51;68.43;;;32.97;;
61907;SDS011;47864;52.526;19.672;2023-03-19T00:09:52;62.42;;;31.75;;
61907;SDS011;47864;52.526;19.672;2023-03-19T00:11:54;69.95;;;32.85;;
61907;SDS011;47864;52.526;19.672;2023-03-19T00:13:55;65.18;;;32.33;;
61907;SDS011;47864;52.526;19.672;2023-03-19T00:15:57;64.20;;;30.48;;
61907;SDS011;47864;52.526;19.672;2023-03-19T00:17:58;54.25;;;27.73;;
61907;SDS011;47864;52.526;19.672;2023-03-19T00:20:00;58.05;;;28.98;;
61907;SDS011;47864;52.526;19.672;2023-03-19T00:22:01;58.58;;;29.08;;
61907;SDS011;47864;52.526;19.672;2023-03-19T00:24:03;57.47;;;28.38;;
61907;SDS011;47864;52.526;19.672;2023-03-19T00:26:05;50.10;;;26.02;;
61907;SDS011;47864;52.526;19.672;2023-03-19T00:28:06;57.15;;;27.52;;
61907;SDS011;47864;52.526;19.672;2023-03-19T00:30:08;51.97;;;27.13;;
61907;SDS011;47864;52.526;19.672;2023-03-19T00:32:10;50.42;;;27.15;;
61907;SDS011;47864;52.526;19.672;2023-03-19T00:34:12;54.92;;;29.17;;
61907;SDS011;47864;52.526;19.672;2023-03-19T00:36:13;53.65;;;27.35;;
61907;SDS011;47864;52.526;19.672;2023-03-19T00:38:15;51.13;;;27.80;;
61907;SDS011;47864;52.526;19.672;2023-03-19T00:40:17;53.88;;;27.02;;
61907;SDS011;47864;52.526;19.672;2023-03-19T00:42:18;54.13;;;27.50;;
61907;SDS011;47864;52.526;19.672;2023-03-19T00:44:19;51.88;;;29.10;;
61907;SDS011;47864;52.526;19.672;2023-03-19T00:46:21;57.03;;;28.70;;
61907;SDS011;47864;52.526;19.672;2023-03-19T00:48:24;58.72;;;28.60;;
61907;SDS011;47864;52.526;19.672;2023-03-19T00:50:25;59.40;;;29.15;;
61907;SDS011;47864;52.526;19.672;2023-03-19T00:52:27;58.83;;;29.20;;
61907;SDS011;47864;52.526;19.672;2023-03-19T00:54:28;56.97;;;28.05;;
61907;SDS011;47864;52.526;19.672;2023-03-19T00:56:30;54.95;;;28.33;;
61907;SDS011;47864;52.526;19.672;2023-03-19T00:58:32;57.83;;;28.52;;
61907;SDS011;47864;52.526;19.672;2023-03-19T01:00:35;48.42;;;27.63;;
61907;SDS011;47864;52.526;19.672;2023-03-19T01:02:37;55.60;;;28.10;;
61907;SDS011;47864;52.526;19.672;2023-03-19T01:04:39;51.97;;;27.33;;
61907;SDS011;47864;52.526;19.672;2023-03-19T01:06:40;47.65;;;26.25;;
61907;SDS011;47864;52.526;19.672;2023-03-19T01:08:42;49.85;;;26.98;;
61907;SDS011;47864;52.526;19.672;2023-03-19T01:10:43;54.03;;;28.40;;
61907;SDS011;47864;52.526;19.672;2023-03-19T01:12:45;51.15;;;27.42;;
61907;SDS011;47864;52.526;19.672;2023-03-19T01:14:46;55.13;;;26.73;;
61907;SDS011;47864;52.526;19.672;2023-03-19T01:16:48;53.25;;;26.17;;
61907;SDS011;47864;52.526;19.672;2023-03-19T01:18:49;49.65;;;26.45;;
61907;SDS011;47864;52.526;19.672;2023-03-19T01:20:51;52.35;;;26.33;;
61907;SDS011;47864;52.526;19.672;2023-03-19T01:22:53;50.58;;;27.02;;
61907;SDS011;47864;52.526;19.672;2023-03-19T01:24:54;46.90;;;26.75;;
61907;SDS011;47864;52.526;19.672;2023-03-19T01:26:56;50.08;;;26.23;;
61907;SDS011;47864;52.526;19.672;2023-03-19T01:28:57;56.58;;;27.17;;
61907;SDS011;47864;52.526;19.672;2023-03-19T01:30:59;50.33;;;25.92;;
61907;SDS011;47864;52.526;19.672;2023-03-19T01:33:01;57.20;;;26.37;;
61907;SDS011;47864;52.526;19.672;2023-03-19T01:35:03;54.80;;;26.45;;
61907;SDS011;47864;52.526;19.672;2023-03-19T01:37:05;59.65;;;27.27;;
61907;SDS011;47864;52.526;19.672;2023-03-19T01:39:07;58.50;;;27.80;;
61907;SDS011;47864;52.526;19.672;2023-03-19T01:41:08;53.28;;;27.30;;
61907;SDS011;47864;52.526;19.672;2023-03-19T01:45:29;47.83;;;26.17;;
61907;SDS011;47864;52.526;19.672;2023-03-19T01:47:41;57.25;;;26.67;;
61907;SDS011;47864;52.526;19.672;2023-03-19T01:49:46;51.83;;;26.35;;
61907;SDS011;47864;52.526;19.672;2023-03-19T01:51:53;51.88;;;27.52;;
61907;SDS011;47864;52.526;19.672;2023-03-19T01:53:57;54.05;;;26.33;;
61907;SDS011;47864;52.526;19.672;2023-03-19T01:56:11;54.03;;;27.58;;
61907;SDS011;47864;52.526;19.672;2023-03-19T01:58:16;57.15;;;26.80;;
61907;SDS011;47864;52.526;19.672;2023-03-19T02:00:18;49.42;;;26.02;;
61907;SDS011;47864;52.526;19.672;2023-03-19T02:02:27;52.17;;;28.08;;
61907;SDS011;47864;52.526;19.672;2023-03-19T02:04:30;51.65;;;27.77;;
61907;SDS011;47864;52.526;19.672;2023-03-19T02:06:34;60.30;;;28.70;;
61907;SDS011;47864;52.526;19.672;2023-03-19T02:08:36;57.97;;;28.25;;
61907;SDS011;47864;52.526;19.672;2023-03-19T02:10:39;55.97;;;28.90;;
61907;SDS011;47864;52.526;19.672;2023-03-19T02:12:42;56.33;;;28.95;;
61907;SDS011;47864;52.526;19.672;2023-03-19T02:14:43;54.85;;;28.27;;
61907;SDS011;47864;52.526;19.672;2023-03-19T02:16:45;53.65;;;29.30;;
61907;SDS011;47864;52.526;19.672;2023-03-19T02:18:47;56.08;;;30.17;;
61907;SDS011;47864;52.526;19.672;2023-03-19T02:20:54;61.95;;;31.38;;
61907;SDS011;47864;52.526;19.672;2023-03-19T02:25:20;60.00;;;33.45;;
61907;SDS011;47864;52.526;19.672;2023-03-19T02:27:25;59.90;;;34.35;;
61907;SDS011;47864;52.526;19.672;2023-03-19T02:29:26;61.13;;;32.92;;
61907;SDS011;47864;52.526;19.672;2023-03-19T02:31:28;62.70;;;34.33;;
61907;SDS011;47864;52.526;19.672;2023-03-19T02:33:30;60.13;;;34.33;;
61907;SDS011;47864;52.526;19.672;2023-03-19T02:35:32;55.97;;;32.90;;
61907;SDS011;47864;52.526;19.672;2023-03-19T02:42:09;60.05;;;34.65;;
61907;SDS011;47864;52.526;19.672;2023-03-19T02:46:13;63.75;;;34.55;;
61907;SDS011;47864;52.526;19.672;2023-03-19T02:48:14;57.95;;;33.97;;
61907;SDS011;47864;52.526;19.672;2023-03-19T02:50:16;63.28;;;34.97;;
61907;SDS011;47864;52.526;19.672;2023-03-19T02:52:18;62.03;;;33.33;;
61907;SDS011;47864;52.526;19.672;2023-03-19T02:54:19;70.65;;;37.50;;
61907;SDS011;47864;52.526;19.672;2023-03-19T02:56:21;66.45;;;35.72;;
61907;SDS011;47864;52.526;19.672;2023-03-19T02:58:22;65.25;;;35.55;;
61907;SDS011;47864;52.526;19.672;2023-03-19T03:00:24;62.75;;;34.30;;
61907;SDS011;47864;52.526;19.672;2023-03-19T03:02:25;66.57;;;35.72;;
61907;SDS011;47864;52.526;19.672;2023-03-19T03:04:27;53.53;;;31.85;;
61907;SDS011;47864;52.526;19.672;2023-03-19T03:06:29;58.00;;;31.52;;
61907;SDS011;47864;52.526;19.672;2023-03-19T03:08:30;56.03;;;32.03;;
61907;SDS011;47864;52.526;19.672;2023-03-19T03:10:32;57.92;;;33.03;;
61907;SDS011;47864;52.526;19.672;2023-03-19T03:12:34;55.50;;;32.75;;
61907;SDS011;47864;52.526;19.672;2023-03-19T03:14:35;51.67;;;30.95;;
61907;SDS011;47864;52.526;19.672;2023-03-19T03:16:37;53.35;;;30.58;;
61907;SDS011;47864;52.526;19.672;2023-03-19T03:18:39;51.20;;;30.20;;
61907;SDS011;47864;52.526;19.672;2023-03-19T03:20:40;48.30;;;29.55;;
61907;SDS011;47864;52.526;19.672;2023-03-19T03:22:43;52.03;;;29.00;;
61907;SDS011;47864;52.526;19.672;2023-03-19T03:24:44;49.95;;;28.65;;
61907;SDS011;47864;52.526;19.672;2023-03-19T03:26:46;56.65;;;30.92;;
61907;SDS011;47864;52.526;19.672;2023-03-19T03:28:47;49.55;;;29.90;;
61907;SDS011;47864;52.526;19.672;2023-03-19T03:30:49;56.42;;;31.83;;
61907;SDS011;47864;52.526;19.672;2023-03-19T03:32:50;61.38;;;31.75;;
61907;SDS011;47864;52.526;19.672;2023-03-19T03:34:52;56.20;;;31.20;;
61907;SDS011;47864;52.526;19.672;2023-03-19T03:36:54;53.88;;;31.75;;
61907;SDS011;47864;52.526;19.672;2023-03-19T03:38:55;52.97;;;30.83;;
61907;SDS011;47864;52.526;19.672;2023-03-19T03:40:56;54.55;;;32.25;;
61907;SDS011;47864;52.526;19.672;2023-03-19T03:42:58;57.13;;;33.13;;
61907;SDS011;47864;52.526;19.672;2023-03-19T03:45:00;53.30;;;33.20;;
61907;SDS011;47864;52.526;19.672;2023-03-19T03:47:01;56.38;;;32.50;;
61907;SDS011;47864;52.526;19.672;2023-03-19T03:49:03;54.13;;;31.45;;
61907;SDS011;47864;52.526;19.672;2023-03-19T03:51:04;58.38;;;32.17;;
61907;SDS011;47864;52.526;19.672;2023-03-19T03:53:06;55.95;;;33.38;;
61907;SDS011;47864;52.526;19.672;2023-03-19T03:55:08;58.40;;;34.80;;
61907;SDS011;47864;52.526;19.672;2023-03-19T03:57:10;56.70;;;32.70;;
61907;SDS011;47864;52.526;19.672;2023-03-19T03:59:12;55.25;;;31.40;;
61907;SDS011;47864;52.526;19.672;2023-03-19T04:01:14;58.88;;;32.03;;
61907;SDS011;47864;52.526;19.672;2023-03-19T04:03:16;61.15;;;33.78;;
61907;SDS011;47864;52.526;19.672;2023-03-19T04:05:18;59.72;;;34.40;;
61907;SDS011;47864;52.526;19.672;2023-03-19T04:07:20;80.40;;;38.63;;
61907;SDS011;47864;52.526;19.672;2023-03-19T04:09:21;74.82;;;37.50;;
61907;SDS011;47864;52.526;19.672;2023-03-19T04:11:23;72.57;;;39.03;;
61907;SDS011;47864;52.526;19.672;2023-03-19T04:13:24;69.97;;;38.08;;
61907;SDS011;47864;52.526;19.672;2023-03-19T04:15:26;64.05;;;36.20;;
61907;SDS011;47864;52.526;19.672;2023-03-19T04:17:28;58.63;;;33.03;;
61907;SDS011;47864;52.526;19.672;2023-03-19T04:19:29;64.00;;;35.47;;
61907;SDS011;47864;52.526;19.672;2023-03-19T04:21:31;67.50;;;35.08;;
61907;SDS011;47864;52.526;19.672;2023-03-19T04:23:33;60.05;;;32.53;;
61907;SDS011;47864;52.526;19.672;2023-03-19T04:25:37;62.92;;;34.60;;
61907;SDS011;47864;52.526;19.672;2023-03-19T04:27:39;59.28;;;33.60;;
61907;SDS011;47864;52.526;19.672;2023-03-19T04:29:41;59.78;;;32.30;;
61907;SDS011;47864;52.526;19.672;2023-03-19T04:31:42;64.97;;;34.50;;
61907;SDS011;47864;52.526;19.672;2023-03-19T04:33:44;69.60;;;36.08;;
61907;SDS011;47864;52.526;19.672;2023-03-19T04:35:46;61.47;;;34.55;;
61907;SDS011;47864;52.526;19.672;2023-03-19T04:37:48;62.25;;;33.85;;
61907;SDS011;47864;52.526;19.672;2023-03-19T04:39:49;62.47;;;34.88;;
61907;SDS011;47864;52.526;19.672;2023-03-19T04:41:51;61.70;;;35.30;;
61907;SDS011;47864;52.526;19.672;2023-03-19T04:43:53;56.85;;;31.38;;
61907;SDS011;47864;52.526;19.672;2023-03-19T04:45:54;58.22;;;32.63;;
61907;SDS011;47864;52.526;19.672;2023-03-19T04:47:56;60.53;;;34.58;;
61907;SDS011;47864;52.526;19.672;2023-03-19T04:49:57;55.22;;;33.00;;
61907;SDS011;47864;52.526;19.672;2023-03-19T04:51:59;60.53;;;32.78;;
61907;SDS011;47864;52.526;19.672;2023-03-19T04:54:00;62.05;;;33.92;;
61907;SDS011;47864;52.526;19.672;2023-03-19T04:56:02;59.90;;;36.30;;
61907;SDS011;47864;52.526;19.672;2023-03-19T04:58:04;55.50;;;33.60;;
61907;SDS011;47864;52.526;19.672;2023-03-19T05:00:05;52.47;;;32.80;;
61907;SDS011;47864;52.526;19.672;2023-03-19T05:02:07;58.67;;;34.03;;
61907;SDS011;47864;52.526;19.672;2023-03-19T05:04:09;60.97;;;32.72;;
61907;SDS011;47864;52.526;19.672;2023-03-19T05:06:11;58.50;;;32.90;;
61907;SDS011;47864;52.526;19.672;2023-03-19T05:08:12;59.67;;;33.70;;
61907;SDS011;47864;52.526;19.672;2023-03-19T05:10:14;53.97;;;32.00;;
61907;SDS011;47864;52.526;19.672;2023-03-19T05:12:15;56.45;;;32.38;;
61907;SDS011;47864;52.526;19.672;2023-03-19T05:14:17;55.55;;;32.58;;
61907;SDS011;47864;52.526;19.672;2023-03-19T05:16:18;53.97;;;31.23;;
61907;SDS011;47864;52.526;19.672;2023-03-19T05:18:20;57.58;;;31.30;;
61907;SDS011;47864;52.526;19.672;2023-03-19T05:20:21;51.63;;;31.52;;
61907;SDS011;47864;52.526;19.672;2023-03-19T05:22:23;52.65;;;31.80;;
61907;SDS011;47864;52.526;19.672;2023-03-19T05:24:24;52.13;;;32.65;;
61907;SDS011;47864;52.526;19.672;2023-03-19T05:26:26;51.95;;;30.17;;
61907;SDS011;47864;52.526;19.672;2023-03-19T05:28:28;43.92;;;27.65;;
61907;SDS011;47864;52.526;19.672;2023-03-19T05:30:29;46.83;;;28.17;;
61907;SDS011;47864;52.526;19.672;2023-03-19T05:32:31;58.30;;;29.65;;
61907;SDS011;47864;52.526;19.672;2023-03-19T05:34:33;58.65;;;33.22;;
61907;SDS011;47864;52.526;19.672;2023-03-19T05:36:34;53.17;;;28.50;;
61907;SDS011;47864;52.526;19.672;2023-03-19T05:38:36;51.63;;;25.98;;
61907;SDS011;47864;52.526;19.672;2023-03-19T05:40:38;48.05;;;24.88;;
61907;SDS011;47864;52.526;19.672;2023-03-19T05:42:39;53.05;;;24.45;;
61907;SDS011;47864;52.526;19.672;2023-03-19T05:44:41;49.35;;;26.05;;
61907;SDS011;47864;52.526;19.672;2023-03-19T05:46:42;44.85;;;23.92;;
61907;SDS011;47864;52.526;19.672;2023-03-19T05:48:44;43.47;;;24.23;;
61907;SDS011;47864;52.526;19.672;2023-03-19T05:50:45;49.63;;;25.10;;
61907;SDS011;47864;52.526;19.672;2023-03-19T05:52:47;45.90;;;23.95;;
61907;SDS011;47864;52.526;19.672;2023-03-19T05:54:48;49.92;;;25.65;;
61907;SDS011;47864;52.526;19.672;2023-03-19T05:56:50;47.35;;;23.52;;
61907;SDS011;47864;52.526;19.672;2023-03-19T05:58:51;54.00;;;25.85;;
61907;SDS011;47864;52.526;19.672;2023-03-19T06:00:54;47.22;;;24.42;;
61907;SDS011;47864;52.526;19.672;2023-03-19T06:02:55;47.97;;;23.70;;
61907;SDS011;47864;52.526;19.672;2023-03-19T06:04:57;48.40;;;24.08;;
61907;SDS011;47864;52.526;19.672;2023-03-19T06:06:59;47.10;;;24.10;;
61907;SDS011;47864;52.526;19.672;2023-03-19T06:09:00;43.80;;;22.85;;
61907;SDS011;47864;52.526;19.672;2023-03-19T06:11:02;45.35;;;23.42;;
61907;SDS011;47864;52.526;19.672;2023-03-19T06:13:04;47.10;;;24.40;;
61907;SDS011;47864;52.526;19.672;2023-03-19T06:15:05;57.72;;;29.35;;
61907;SDS011;47864;52.526;19.672;2023-03-19T06:17:08;72.05;;;36.42;;
61907;SDS011;47864;52.526;19.672;2023-03-19T06:19:09;65.78;;;32.90;;
61907;SDS011;47864;52.526;19.672;2023-03-19T06:21:11;57.90;;;30.63;;
61907;SDS011;47864;52.526;19.672;2023-03-19T06:23:13;45.85;;;24.75;;
61907;SDS011;47864;52.526;19.672;2023-03-19T06:25:16;41.85;;;21.63;;
61907;SDS011;47864;52.526;19.672;2023-03-19T06:27:18;42.95;;;21.80;;
61907;SDS011;47864;52.526;19.672;2023-03-19T06:29:19;45.50;;;22.67;;
61907;SDS011;47864;52.526;19.672;2023-03-19T06:31:21;41.63;;;22.83;;
61907;SDS011;47864;52.526;19.672;2023-03-19T06:33:22;43.58;;;23.50;;
61907;SDS011;47864;52.526;19.672;2023-03-19T06:35:24;44.10;;;23.02;;
61907;SDS011;47864;52.526;19.672;2023-03-19T06:37:26;40.17;;;22.42;;
61907;SDS011;47864;52.526;19.672;2023-03-19T06:39:27;40.80;;;22.00;;
61907;SDS011;47864;52.526;19.672;2023-03-19T06:41:29;39.75;;;20.98;;
61907;SDS011;47864;52.526;19.672;2023-03-19T06:43:31;38.33;;;20.15;;
61907;SDS011;47864;52.526;19.672;2023-03-19T06:45:32;38.90;;;20.77;;
61907;SDS011;47864;52.526;19.672;2023-03-19T06:47:34;42.20;;;20.80;;
61907;SDS011;47864;52.526;19.672;2023-03-19T06:49:36;46.88;;;20.85;;
61907;SDS011;47864;52.526;19.672;2023-03-19T06:51:37;36.88;;;20.77;;
61907;SDS011;47864;52.526;19.672;2023-03-19T06:53:39;38.83;;;20.45;;
61907;SDS011;47864;52.526;19.672;2023-03-19T06:55:40;37.63;;;20.55;;
61907;SDS011;47864;52.526;19.672;2023-03-19T06:57:42;37.00;;;19.40;;
61907;SDS011;47864;52.526;19.672;2023-03-19T06:59:43;37.70;;;20.92;;
61907;SDS011;47864;52.526;19.672;2023-03-19T07:01:44;39.63;;;21.02;;
61907;SDS011;47864;52.526;19.672;2023-03-19T07:03:46;36.70;;;20.55;;
61907;SDS011;47864;52.526;19.672;2023-03-19T07:05:50;38.33;;;20.52;;
61907;SDS011;47864;52.526;19.672;2023-03-19T07:07:52;34.80;;;20.33;;
61907;SDS011;47864;52.526;19.672;2023-03-19T07:09:54;38.45;;;19.73;;
61907;SDS011;47864;52.526;19.672;2023-03-19T07:11:55;39.72;;;21.42;;
61907;SDS011;47864;52.526;19.672;2023-03-19T07:13:57;37.28;;;20.50;;
61907;SDS011;47864;52.526;19.672;2023-03-19T07:15:59;37.58;;;20.83;;
61907;SDS011;47864;52.526;19.672;2023-03-19T07:18:00;40.45;;;22.13;;
61907;SDS011;47864;52.526;19.672;2023-03-19T07:20:02;38.13;;;21.02;;
61907;SDS011;47864;52.526;19.672;2023-03-19T07:22:04;41.95;;;21.48;;
61907;SDS011;47864;52.526;19.672;2023-03-19T07:24:06;39.65;;;20.27;;
61907;SDS011;47864;52.526;19.672;2023-03-19T07:26:08;34.88;;;20.13;;
61907;SDS011;47864;52.526;19.672;2023-03-19T07:28:09;42.10;;;24.00;;
61907;SDS011;47864;52.526;19.672;2023-03-19T07:30:11;38.58;;;20.30;;
61907;SDS011;47864;52.526;19.672;2023-03-19T07:32:13;35.70;;;19.92;;
61907;SDS011;47864;52.526;19.672;2023-03-19T07:34:15;37.85;;;20.10;;
61907;SDS011;47864;52.526;19.672;2023-03-19T07:36:16;37.20;;;19.77;;
61907;SDS011;47864;52.526;19.672;2023-03-19T07:38:18;34.58;;;18.60;;
61907;SDS011;47864;52.526;19.672;2023-03-19T07:40:20;29.70;;;16.17;;
61907;SDS011;47864;52.526;19.672;2023-03-19T07:42:21;33.15;;;17.35;;
61907;SDS011;47864;52.526;19.672;2023-03-19T07:44:23;29.20;;;15.75;;
61907;SDS011;47864;52.526;19.672;2023-03-19T07:46:24;31.10;;;16.35;;
61907;SDS011;47864;52.526;19.672;2023-03-19T07:48:26;33.67;;;17.05;;
61907;SDS011;47864;52.526;19.672;2023-03-19T07:50:28;33.22;;;17.65;;
61907;SDS011;47864;52.526;19.672;2023-03-19T07:52:30;32.10;;;17.47;;
61907;SDS011;47864;52.526;19.672;2023-03-19T07:54:32;34.53;;;16.77;;
61907;SDS011;47864;52.526;19.672;2023-03-19T07:56:33;34.03;;;17.83;;
61907;SDS011;47864;52.526;19.672;2023-03-19T07:58:35;31.08;;;17.80;;
61907;SDS011;47864;52.526;19.672;2023-03-19T08:00:36;26.73;;;16.58;;
61907;SDS011;47864;52.526;19.672;2023-03-19T08:02:38;27.15;;;16.48;;
61907;SDS011;47864;52.526;19.672;2023-03-19T08:04:39;28.52;;;16.40;;
61907;SDS011;47864;52.526;19.672;2023-03-19T08:06:41;36.50;;;17.48;;
61907;SDS011;47864;52.526;19.672;2023-03-19T08:08:43;35.00;;;16.52;;
61907;SDS011;47864;52.526;19.672;2023-03-19T08:10:44;31.92;;;16.98;;
61907;SDS011;47864;52.526;19.672;2023-03-19T08:12:46;30.58;;;16.42;;
61907;SDS011;47864;52.526;19.672;2023-03-19T08:14:47;33.65;;;16.85;;
61907;SDS011;47864;52.526;19.672;2023-03-19T08:16:49;27.67;;;15.57;;
61907;SDS011;47864;52.526;19.672;2023-03-19T08:18:50;29.92;;;16.45;;
61907;SDS011;47864;52.526;19.672;2023-03-19T08:20:52;38.38;;;18.35;;
61907;SDS011;47864;52.526;19.672;2023-03-19T08:22:54;28.58;;;16.70;;
61907;SDS011;47864;52.526;19.672;2023-03-19T08:24:55;26.98;;;15.40;;
61907;SDS011;47864;52.526;19.672;2023-03-19T08:26:57;28.05;;;15.75;;
61907;SDS011;47864;52.526;19.672;2023-03-19T08:28:59;27.23;;;14.90;;
61907;SDS011;47864;52.526;19.672;2023-03-19T08:31:07;31.13;;;16.45;;
61907;SDS011;47864;52.526;19.672;2023-03-19T08:33:10;30.02;;;15.70;;
61907;SDS011;47864;52.526;19.672;2023-03-19T08:35:12;28.85;;;15.27;;
61907;SDS011;47864;52.526;19.672;2023-03-19T08:37:13;36.05;;;17.90;;
61907;SDS011;47864;52.526;19.672;2023-03-19T08:39:15;26.23;;;15.88;;
61907;SDS011;47864;52.526;19.672;2023-03-19T08:41:17;32.05;;;15.55;;
61907;SDS011;47864;52.526;19.672;2023-03-19T08:43:18;31.25;;;15.98;;
61907;SDS011;47864;52.526;19.672;2023-03-19T08:45:20;29.38;;;15.18;;
61907;SDS011;47864;52.526;19.672;2023-03-19T08:47:22;28.23;;;15.30;;
61907;SDS011;47864;52.526;19.672;2023-03-19T08:49:24;24.67;;;15.02;;
61907;SDS011;47864;52.526;19.672;2023-03-19T08:51:25;26.13;;;14.25;;
61907;SDS011;47864;52.526;19.672;2023-03-19T08:53:27;25.67;;;15.05;;
61907;SDS011;47864;52.526;19.672;2023-03-19T08:55:30;29.65;;;15.13;;
61907;SDS011;47864;52.526;19.672;2023-03-19T08:57:32;27.33;;;14.95;;
61907;SDS011;47864;52.526;19.672;2023-03-19T08:59:33;26.33;;;14.35;;
61907;SDS011;47864;52.526;19.672;2023-03-19T09:01:35;24.10;;;13.80;;
61907;SDS011;47864;52.526;19.672;2023-03-19T09:03:37;25.52;;;14.02;;
61907;SDS011;47864;52.526;19.672;2023-03-19T09:05:39;23.98;;;13.38;;
61907;SDS011;47864;52.526;19.672;2023-03-19T09:07:41;29.25;;;14.65;;
61907;SDS011;47864;52.526;19.672;2023-03-19T09:09:43;25.52;;;13.43;;
61907;SDS011;47864;52.526;19.672;2023-03-19T09:11:45;27.00;;;14.27;;
61907;SDS011;47864;52.526;19.672;2023-03-19T09:13:47;30.45;;;15.05;;
61907;SDS011;47864;52.526;19.672;2023-03-19T09:15:49;24.27;;;13.63;;
61907;SDS011;47864;52.526;19.672;2023-03-19T09:17:50;24.52;;;13.07;;
61907;SDS011;47864;52.526;19.672;2023-03-19T09:19:52;26.08;;;14.25;;
61907;SDS011;47864;52.526;19.672;2023-03-19T09:21:53;25.88;;;13.13;;
61907;SDS011;47864;52.526;19.672;2023-03-19T09:23:55;23.83;;;14.70;;
61907;SDS011;47864;52.526;19.672;2023-03-19T09:25:56;25.08;;;13.77;;
61907;SDS011;47864;52.526;19.672;2023-03-19T09:27:58;25.05;;;14.15;;
61907;SDS011;47864;52.526;19.672;2023-03-19T09:30:00;21.40;;;13.30;;
61907;SDS011;47864;52.526;19.672;2023-03-19T09:32:01;25.80;;;13.90;;
61907;SDS011;47864;52.526;19.672;2023-03-19T09:34:03;24.05;;;13.60;;
61907;SDS011;47864;52.526;19.672;2023-03-19T09:36:05;25.88;;;14.00;;
61907;SDS011;47864;52.526;19.672;2023-03-19T09:38:07;24.70;;;14.52;;
61907;SDS011;47864;52.526;19.672;2023-03-19T09:40:25;20.95;;;12.90;;
61907;SDS011;47864;52.526;19.672;2023-03-19T09:44:50;26.02;;;13.65;;
61907;SDS011;47864;52.526;19.672;2023-03-19T09:46:54;22.80;;;13.32;;
61907;SDS011;47864;52.526;19.672;2023-03-19T09:51:16;23.17;;;13.02;;
61907;SDS011;47864;52.526;19.672;2023-03-19T09:55:47;22.48;;;12.48;;
61907;SDS011;47864;52.526;19.672;2023-03-19T09:57:51;19.33;;;12.20;;
61907;SDS011;47864;52.526;19.672;2023-03-19T09:59:55;19.25;;;11.60;;
61907;SDS011;47864;52.526;19.672;2023-03-19T10:06:33;24.67;;;14.75;;
61907;SDS011;47864;52.526;19.672;2023-03-19T10:15:39;21.25;;;12.57;;
61907;SDS011;47864;52.526;19.672;2023-03-19T10:20:08;21.95;;;12.90;;
61907;SDS011;47864;52.526;19.672;2023-03-19T10:22:15;19.88;;;11.77;;
61907;SDS011;47864;52.526;19.672;2023-03-19T10:24:35;18.23;;;11.68;;
61907;SDS011;47864;52.526;19.672;2023-03-19T10:26:39;22.88;;;12.55;;
61907;SDS011;47864;52.526;19.672;2023-03-19T10:28:42;19.67;;;11.45;;
61907;SDS011;47864;52.526;19.672;2023-03-19T10:30:51;21.92;;;11.30;;
61907;SDS011;47864;52.526;19.672;2023-03-19T10:33:14;18.13;;;11.07;;
61907;SDS011;47864;52.526;19.672;2023-03-19T10:35:23;20.38;;;11.02;;
61907;SDS011;47864;52.526;19.672;2023-03-19T10:37:38;24.02;;;12.05;;
61907;SDS011;47864;52.526;19.672;2023-03-19T10:39:41;21.95;;;12.43;;
61907;SDS011;47864;52.526;19.672;2023-03-19T10:41:52;29.00;;;13.88;;
61907;SDS011;47864;52.526;19.672;2023-03-19T10:44:06;23.52;;;12.73;;
61907;SDS011;47864;52.526;19.672;2023-03-19T10:46:15;24.58;;;14.27;;
61907;SDS011;47864;52.526;19.672;2023-03-19T10:48:17;23.80;;;12.57;;
61907;SDS011;47864;52.526;19.672;2023-03-19T10:50:21;23.02;;;11.82;;
61907;SDS011;47864;52.526;19.672;2023-03-19T10:52:29;22.73;;;13.23;;
61907;SDS011;47864;52.526;19.672;2023-03-19T10:54:34;23.20;;;11.82;;
61907;SDS011;47864;52.526;19.672;2023-03-19T10:56:40;24.58;;;12.77;;
61907;SDS011;47864;52.526;19.672;2023-03-19T10:58:56;21.58;;;12.48;;
61907;SDS011;47864;52.526;19.672;2023-03-19T11:01:02;21.80;;;12.73;;
61907;SDS011;47864;52.526;19.672;2023-03-19T11:03:09;22.20;;;12.80;;
61907;SDS011;47864;52.526;19.672;2023-03-19T11:05:36;25.33;;;11.80;;
61907;SDS011;47864;52.526;19.672;2023-03-19T11:07:38;20.63;;;12.43;;
61907;SDS011;47864;52.526;19.672;2023-03-19T11:09:41;19.15;;;11.98;;
61907;SDS011;47864;52.526;19.672;2023-03-19T11:11:46;25.35;;;12.27;;
61907;SDS011;47864;52.526;19.672;2023-03-19T11:13:51;20.05;;;11.70;;
61907;SDS011;47864;52.526;19.672;2023-03-19T11:15:54;25.25;;;12.70;;
61907;SDS011;47864;52.526;19.672;2023-03-19T11:18:00;21.92;;;10.95;;
61907;SDS011;47864;52.526;19.672;2023-03-19T11:22:28;34.30;;;22.05;;
61907;SDS011;47864;52.526;19.672;2023-03-19T11:24:32;19.45;;;11.25;;
61907;SDS011;47864;52.526;19.672;2023-03-19T11:26:36;19.92;;;11.27;;
61907;SDS011;47864;52.526;19.672;2023-03-19T11:28:41;20.70;;;10.95;;
61907;SDS011;47864;52.526;19.672;2023-03-19T11:30:47;18.17;;;10.45;;
61907;SDS011;47864;52.526;19.672;2023-03-19T11:33:13;16.30;;;10.07;;
61907;SDS011;47864;52.526;19.672;2023-03-19T11:35:24;21.27;;;10.05;;
61907;SDS011;47864;52.526;19.672;2023-03-19T11:37:55;20.33;;;11.43;;
61907;SDS011;47864;52.526;19.672;2023-03-19T11:40:03;17.38;;;10.70;;
61907;SDS011;47864;52.526;19.672;2023-03-19T11:44:52;16.17;;;10.27;;
61907;SDS011;47864;52.526;19.672;2023-03-19T11:47:18;21.35;;;10.88;;
61907;SDS011;47864;52.526;19.672;2023-03-19T11:51:37;21.13;;;12.02;;
61907;SDS011;47864;52.526;19.672;2023-03-19T11:58:24;20.88;;;12.05;;
61907;SDS011;47864;52.526;19.672;2023-03-19T12:00:49;23.60;;;15.68;;
61907;SDS011;47864;52.526;19.672;2023-03-19T12:05:16;25.70;;;15.00;;
61907;SDS011;47864;52.526;19.672;2023-03-19T12:07:27;18.83;;;11.05;;
61907;SDS011;47864;52.526;19.672;2023-03-19T12:09:42;17.25;;;10.95;;
61907;SDS011;47864;52.526;19.672;2023-03-19T12:14:16;23.33;;;12.27;;
61907;SDS011;47864;52.526;19.672;2023-03-19T12:16:24;24.42;;;12.32;;
61907;SDS011;47864;52.526;19.672;2023-03-19T12:32:32;21.02;;;11.65;;
61907;SDS011;47864;52.526;19.672;2023-03-19T12:36:53;21.58;;;11.85;;
61907;SDS011;47864;52.526;19.672;2023-03-19T12:39:05;22.20;;;11.30;;
61907;SDS011;47864;52.526;19.672;2023-03-19T12:41:18;19.25;;;10.82;;
61907;SDS011;47864;52.526;19.672;2023-03-19T12:43:24;19.80;;;11.38;;
61907;SDS011;47864;52.526;19.672;2023-03-19T12:45:36;19.05;;;11.13;;
61907;SDS011;47864;52.526;19.672;2023-03-19T12:47:42;21.38;;;11.43;;
61907;SDS011;47864;52.526;19.672;2023-03-19T12:49:50;19.52;;;11.80;;
61907;SDS011;47864;52.526;19.672;2023-03-19T12:54:37;18.83;;;11.00;;
61907;SDS011;47864;52.526;19.672;2023-03-19T12:56:43;17.17;;;10.60;;
61907;SDS011;47864;52.526;19.672;2023-03-19T12:58:58;17.95;;;10.52;;